Pasco, WA

10:38 PM PDT on June 25, 2017 (GMT -0700)
Madison Park | | Change Station
Active Advisory: Fire Weather Warning Active Notice: Public Information Statement

Elev 505 ft 46.28 °N, 119.15 °W | Updated 6 seconds ago

Clear
Clear
77.4 °F
Feels Like 79 °F
N
0.0
Wind Variable Wind from West

Today
High -- | Low -- °F
--% Chance of Precip.
Yesterday
High -- | Low -- °F
Precip. -- in
Pressure 29.77 in
Visibility 10.0 miles
Clouds Clear
Heat Index 79 °F
Dew Point 60 °F
Humidity 56%
Rainfall 0.00 in
Snow Depth Not available.
5:05 AM 8:52 PM
Waxing Crescent, 7% visible
METAR KPSC 260453Z AUTO 32003KT 10SM CLR 24/17 A2978 RMK AO2 SLP081 T02390167
Pressure 29.77 in
Visibility 10.0 miles
Clouds Clear
Heat Index 79 °F
Dew Point 60 °F
Humidity 56%
Rainfall 0.00 in
Snow Depth Not available.
5:05 AM 8:52 PM
Waxing Crescent, 7% visible
METAR KPSC 260453Z AUTO 32003KT 10SM CLR 24/17 A2978 RMK AO2 SLP081 T02390167

Get Your Daily Forecast Email!

Thanks for signing up!

Be on the lookout for a verification email in your inbox.

You'll start receiving severe weather alerts in your inbox..

×

10-Day Weather Forecast

Almanac

Astronomy

Jun. 25, 2017 Rise Set
Actual Time
Civil Twilight
Nautical Twilight
Astronomical Twilight
Moon
Length of Visible Light
Length of Day
Tomorrow will be .
, % of the Moon is Illuminated

Today's Extremes

State Highs State Lows

Community

WunderPhotos

Category 6

Welcome to Category 6. This is the collective home for Weather Underground's featured writeups by Dr. Jeff Masters (right), Bob Henson (left), Chris Burt, and other regular contributors.

Nearby

Air Quality

  Air Quality AQ Index Pollutant
Not available.

Snow Depth

Station Depth Elevation

Earthquake Activity

City Distance Mag. Time & Date
Minimum magnitude displayed is 2.5.

Coastal Water Temperatures

Place Temperature

Stations

Nearby Weather Stations

Station Location Temp. Windchill Dew Point Humidity Wind Precip. Elev Updated Type
                   

Watches & Warnings

Fire Weather Warning
Issued: 10:35 PM PDT Jun. 25, 2017 – National Weather Service

... Red flag warning will expire at 11 PM PDT this evening for
abundant lightning and gusty outflow winds very hot and dry
conditions for fire weather zones 641, 641, and 675...